Time;durP1;ratioP1;P1;durP2;ratioP2;P2;SDS_P1;SDS_P2;PMS_P1;PMS_P2;Temp;Humidity;BMP_temperature;BMP_pressure;BME280_temperature;BME280_humidity;BME280_pressure;Samples;Min_cycle;Max_cycle;Signal;HPM_P1;HPM_P2
2023/11/29 00:04:31;;;;;;;44.80;17.00;;;;;;;-3.52;88.53;98966.03;134209;1264;95684;-79
2023/11/29 01:52:40;;;;;;;54.10;20.70;;;;;;;-2.94;87.87;99027.23;129888;1264;99232;-80
2023/11/29 02:15:08;;;;;;;42.70;16.90;;;;;;;-2.86;88.01;99039.44;129951;1265;97968;-80
2023/11/29 03:13:16;;;;;;;41.60;16.70;;;;;;;-3.67;88.80;99081.48;129806;1264;98782;-80
2023/11/29 03:16:21;;;;;;;39.00;15.80;;;;;;;-3.71;88.72;99079.08;129803;1268;99157;-79
2023/11/29 03:19:27;;;;;;;37.00;16.90;;;;;;;-3.67;88.63;99075.23;129742;1286;99179;-79
2023/11/29 03:22:32;;;;;;;35.40;16.30;;;;;;;-3.60;88.62;99069.40;129880;1268;97976;-79
2023/11/29 03:25:38;;;;;;;39.30;17.40;;;;;;;-3.53;88.81;99071.05;129855;1268;98016;-79
2023/11/29 03:28:44;;;;;;;44.80;19.20;;;;;;;-3.52;88.76;99076.73;129958;1270;99173;-79
2023/11/29 03:31:49;;;;;;;141.90;48.20;;;;;;;-3.52;88.46;99068.92;130124;1268;97977;-81
2023/11/29 03:34:55;;;;;;;81.60;29.80;;;;;;;-3.52;88.31;99059.16;130043;1265;98090;-80
2023/11/29 03:38:01;;;;;;;40.80;18.40;;;;;;;-3.44;88.20;99062.17;130075;1268;97966;-78
2023/11/29 03:41:08;;;;;;;41.20;16.60;;;;;;;-3.44;88.12;99063.73;129839;1268;99129;-79
2023/11/29 03:44:14;;;;;;;41.20;17.00;;;;;;;-3.54;87.88;99066.62;129982;1264;98668;-79
2023/11/29 03:47:19;;;;;;;46.00;19.00;;;;;;;-3.61;88.10;99072.77;129692;1271;99247;-80
2023/11/29 03:50:25;;;;;;;60.00;23.20;;;;;;;-3.60;88.32;99064.66;130363;1268;99169;-81
2023/11/29 03:53:30;;;;;;;90.70;40.80;;;;;;;-3.48;88.26;99063.66;130110;1265;98054;-80
2023/11/29 03:56:36;;;;;;;76.70;29.40;;;;;;;-3.34;88.22;99069.03;129974;1265;99192;-79
2023/11/29 03:59:41;;;;;;;58.60;23.90;;;;;;;-3.27;87.79;99077.33;131158;1264;97969;-79
2023/11/29 04:02:47;;;;;;;51.70;21.40;;;;;;;-3.26;87.46;99074.98;130015;1272;98765;-79
2023/11/29 04:05:53;;;;;;;49.60;20.60;;;;;;;-3.30;87.64;99073.98;129986;1268;98483;-79
2023/11/29 04:08:58;;;;;;;45.80;19.50;;;;;;;-3.29;87.38;99076.22;130128;1268;98100;-78
2023/11/29 04:12:04;;;;;;;105.40;37.60;;;;;;;-3.38;87.42;99082.48;129919;1272;99173;-80
2023/11/29 04:15:11;;;;;;;76.30;31.60;;;;;;;-3.46;87.55;99090.27;130029;1269;99205;-79
2023/11/29 04:18:17;;;;;;;43.00;18.10;;;;;;;-3.40;87.75;99087.51;129851;1269;98105;-78
2023/11/29 04:21:25;;;;;;;48.50;21.80;;;;;;;-3.30;87.61;99091.58;130063;1278;99405;-78
2023/11/29 04:24:33;;;;;;;44.80;21.70;;;;;;;-3.21;87.43;99098.52;129914;1271;98519;-78
2023/11/29 04:27:38;;;;;;;61.60;26.20;;;;;;;-3.15;87.27;99098.67;129948;1265;99175;-79
2023/11/29 04:30:44;;;;;;;58.90;23.90;;;;;;;-3.07;87.35;99095.55;129990;1268;99238;-79
2023/11/29 04:33:49;;;;;;;54.40;22.60;;;;;;;-3.13;86.90;99093.98;129796;1268;98692;-79
2023/11/29 04:36:56;;;;;;;50.00;20.80;;;;;;;-3.13;87.31;99094.73;129833;1265;98064;-79
2023/11/29 04:40:02;;;;;;;147.80;61.60;;;;;;;-3.14;87.22;99093.34;129755;1271;97992;-79
2023/11/29 04:43:08;;;;;;;75.70;30.30;;;;;;;-3.17;87.19;99099.29;129777;1265;98888;-77
2023/11/29 04:46:13;;;;;;;56.90;23.80;;;;;;;-3.24;87.33;99099.23;129715;1268;98717;-78
2023/11/29 04:49:19;;;;;;;51.10;21.10;;;;;;;-3.36;88.03;99097.17;129786;1265;98050;-78
2023/11/29 04:52:25;;;;;;;58.70;24.00;;;;;;;-3.48;88.10;99102.39;129818;1268;99037;-78
2023/11/29 04:55:31;;;;;;;45.50;18.70;;;;;;;-3.50;88.29;99100.42;129819;1266;98003;-79
2023/11/29 04:58:39;;;;;;;41.60;18.40;;;;;;;-3.39;88.26;99103.23;129737;1268;97983;-79
2023/11/29 05:01:45;;;;;;;46.90;21.10;;;;;;;-3.37;87.69;99104.84;129853;1266;97996;-77
2023/11/29 05:04:51;;;;;;;62.70;27.00;;;;;;;-3.44;87.99;99108.27;129722;1280;97964;-80
2023/11/29 05:07:56;;;;;;;49.60;23.30;;;;;;;-3.44;87.98;99109.96;130042;1271;97972;-77
2023/11/29 05:11:04;;;;;;;46.70;25.00;;;;;;;-3.28;88.44;99114.61;129740;1280;99062;-78
2023/11/29 05:14:09;;;;;;;34.80;15.30;;;;;;;-3.22;87.62;99111.77;129776;1265;98167;-77
2023/11/29 05:17:15;;;;;;;62.50;25.40;;;;;;;-3.19;87.45;99113.33;129798;1269;98016;-78
2023/11/29 05:20:20;;;;;;;40.90;19.00;;;;;;;-3.28;87.03;99112.83;129917;1265;97984;-78
2023/11/29 05:23:28;;;;;;;61.80;26.80;;;;;;;-3.47;87.37;99112.27;129794;1268;97971;-79
2023/11/29 05:26:34;;;;;;;119.80;45.10;;;;;;;-3.63;87.48;99113.20;129716;1268;99065;-79
2023/11/29 05:29:39;;;;;;;38.10;16.70;;;;;;;-3.56;87.92;99113.80;129752;1266;97910;-79
2023/11/29 05:32:46;;;;;;;35.90;14.70;;;;;;;-3.52;87.43;99118.49;129753;1268;98755;-78
2023/11/29 05:35:53;;;;;;;808.10;275.40;;;;;;;-3.50;87.35;99125.82;129780;1268;98672;-79
2023/11/29 05:38:58;;;;;;;293.60;87.70;;;;;;;-3.46;87.46;99122.79;129784;1267;99177;-79
2023/11/29 05:42:04;;;;;;;498.10;142.50;;;;;;;-3.34;87.26;99130.05;129692;1265;97962;-78
2023/11/29 05:45:10;;;;;;;398.30;108.50;;;;;;;-3.25;86.97;99132.80;129756;1271;97987;-80
2023/11/29 05:48:16;;;;;;;825.20;267.60;;;;;;;-3.24;86.76;99135.02;129757;1268;98055;-80
2023/11/29 05:51:21;;;;;;;58.20;24.40;;;;;;;-3.26;86.28;99143.33;129749;1268;98006;-77
2023/11/29 05:54:27;;;;;;;154.10;42.60;;;;;;;-3.44;85.92;99145.27;130024;1270;98863;-79
2023/11/29 05:57:33;;;;;;;625.70;185.00;;;;;;;-3.60;86.61;99145.86;129957;1264;97996;-80
2023/11/29 06:00:39;;;;;;;153.90;46.80;;;;;;;-3.60;86.59;99157.01;129764;1268;97955;-80
2023/11/29 06:03:44;;;;;;;232.90;90.30;;;;;;;-3.60;86.93;99160.10;129953;1271;98055;-81
2023/11/29 06:06:50;;;;;;;317.40;117.90;;;;;;;-3.53;86.87;99160.95;130026;1263;97963;-80
2023/11/29 06:09:55;;;;;;;47.90;18.30;;;;;;;-3.43;86.82;99164.87;130025;1268;99195;-81
2023/11/29 06:13:03;;;;;;;37.20;16.40;;;;;;;-3.46;86.10;99167.50;130033;1265;97983;-79
2023/11/29 06:16:09;;;;;;;46.00;19.30;;;;;;;-3.53;86.22;99173.27;129983;1265;97978;-79
2023/11/29 06:19:14;;;;;;;38.70;16.70;;;;;;;-3.55;86.46;99171.14;129890;1268;99238;-78
2023/11/29 06:22:20;;;;;;;40.60;18.30;;;;;;;-3.59;86.25;99174.31;129610;1266;97991;-82
2023/11/29 06:25:26;;;;;;;41.10;17.90;;;;;;;-3.66;86.38;99178.38;129833;1265;98806;-82
2023/11/29 06:28:32;;;;;;;233.70;91.30;;;;;;;-3.75;86.66;99180.45;129853;1268;98082;-80
2023/11/29 06:31:37;;;;;;;87.40;37.90;;;;;;;-3.71;87.13;99184.95;129952;1267;98002;-79
2023/11/29 06:34:44;;;;;;;37.30;15.30;;;;;;;-3.65;86.88;99189.25;129990;1266;99009;-81
2023/11/29 06:37:49;;;;;;;32.10;13.90;;;;;;;-3.66;86.70;99194.86;129960;1272;98773;-82
2023/11/29 06:40:57;;;;;;;31.10;14.00;;;;;;;-3.58;87.14;99189.92;129977;1263;98102;-79
2023/11/29 06:44:03;;;;;;;26.50;11.60;;;;;;;-3.42;86.95;99197.48;130035;1268;99252;-80
2023/11/29 06:47:09;;;;;;;30.90;13.60;;;;;;;-3.25;86.95;99196.84;130043;1265;99183;-80
2023/11/29 06:50:15;;;;;;;34.90;13.70;;;;;;;-3.20;86.54;99189.73;130022;1265;97994;-79
2023/11/29 06:53:21;;;;;;;34.70;14.60;;;;;;;-3.13;86.49;99195.60;130008;1268;98029;-82
2023/11/29 06:56:27;;;;;;;34.10;14.60;;;;;;;-3.09;86.40;99194.54;130000;1268;99173;-80
2023/11/29 06:59:33;;;;;;;117.40;44.90;;;;;;;-2.98;86.53;99198.16;129923;1264;98007;-80
2023/11/29 07:02:40;;;;;;;329.10;95.50;;;;;;;-2.85;86.40;99197.52;129847;1265;98770;-81
2023/11/29 07:05:45;;;;;;;520.70;154.50;;;;;;;-2.76;86.44;99198.02;129615;1265;98083;-80
2023/11/29 07:08:51;;;;;;;715.70;241.70;;;;;;;-2.68;86.56;99198.96;129780;1268;98011;-78
2023/11/29 07:11:56;;;;;;;274.20;74.30;;;;;;;-2.61;86.46;99211.58;129732;1268;98636;-78
2023/11/29 07:15:02;;;;;;;433.50;105.10;;;;;;;-2.62;86.34;99217.05;129857;1268;99172;-78
2023/11/29 07:18:08;;;;;;;295.80;73.10;;;;;;;-2.55;86.48;99221.30;129822;1265;97983;-78
2023/11/29 07:21:13;;;;;;;154.60;55.50;;;;;;;-2.48;86.36;99222.08;130095;1273;99154;-78
2023/11/29 07:24:19;;;;;;;46.70;19.50;;;;;;;-2.34;86.43;99220.69;129883;1270;99243;-77
2023/11/29 07:27:24;;;;;;;45.20;17.10;;;;;;;-2.18;86.08;99216.05;129835;1268;98402;-78
2023/11/29 07:30:32;;;;;;;47.20;18.00;;;;;;;-2.01;86.24;99218.77;129787;1268;97984;-78
2023/11/29 07:33:37;;;;;;;42.90;18.40;;;;;;;-1.89;85.97;99222.02;129971;1268;98050;-78
2023/11/29 07:36:51;;;;;;;43.70;17.20;;;;;;;-1.84;85.90;99220.77;129973;1269;97964;-78
2023/11/29 07:39:57;;;;;;;62.50;34.60;;;;;;;-1.81;85.39;99229.83;130067;1268;98052;-79
2023/11/29 07:43:03;;;;;;;63.90;25.90;;;;;;;-1.75;85.64;99230.87;129992;1266;97986;-77
2023/11/29 07:46:09;;;;;;;51.80;21.20;;;;;;;-1.70;85.70;99231.93;129866;1269;98977;-77
2023/11/29 07:49:15;;;;;;;38.80;17.20;;;;;;;-1.66;85.66;99231.99;129946;1265;98021;-78
2023/11/29 07:52:21;;;;;;;36.20;16.20;;;;;;;-1.63;85.64;99230.21;129858;1264;99170;-78
2023/11/29 07:55:26;;;;;;;47.70;23.60;;;;;;;-1.61;85.57;99230.59;129848;1271;99046;-79
2023/11/29 07:58:32;;;;;;;118.90;65.60;;;;;;;-1.57;85.25;99230.02;129862;1269;98334;-79
2023/11/29 08:01:37;;;;;;;66.70;38.20;;;;;;;-1.55;85.36;99230.95;129899;1269;97958;-79
2023/11/29 08:04:43;;;;;;;66.60;43.40;;;;;;;-1.54;85.36;99229.29;129754;1265;98023;-79
2023/11/29 08:07:48;;;;;;;54.60;29.80;;;;;;;-1.55;84.76;99234.62;129887;1270;97982;-78
2023/11/29 08:10:54;;;;;;;69.80;39.80;;;;;;;-1.66;84.97;99235.98;129789;1265;99166;-78
2023/11/29 08:14:00;;;;;;;60.70;27.80;;;;;;;-1.65;85.04;99239.23;129747;1269;98021;-78
2023/11/29 08:17:07;;;;;;;66.10;35.20;;;;;;;-1.58;84.95;99239.52;129822;1268;98935;-79
2023/11/29 08:20:13;;;;;;;61.60;32.80;;;;;;;-1.51;84.55;99233.11;129880;1268;98572;-77
2023/11/29 08:23:18;;;;;;;40.20;21.80;;;;;;;-1.41;84.77;99235.73;129788;1265;98688;-78
2023/11/29 08:26:28;;;;;;;54.00;26.40;;;;;;;-1.27;84.96;99230.80;130151;1264;97955;-82
2023/11/29 08:29:46;;;;;;;50.00;24.30;;;;;;;-1.15;84.49;99233.33;131141;1265;98021;-78
2023/11/29 08:32:51;;;;;;;37.80;21.80;;;;;;;-1.04;84.32;99232.93;130012;1268;97967;-80
2023/11/29 08:35:57;;;;;;;37.30;21.20;;;;;;;-0.97;83.77;99229.13;130348;1268;98107;-78
2023/11/29 08:39:02;;;;;;;30.50;14.90;;;;;;;-1.02;83.17;99232.29;130155;1268;98034;-78
2023/11/29 08:42:08;;;;;;;35.70;16.80;;;;;;;-1.03;83.25;99229.86;130130;1264;97962;-78
2023/11/29 08:45:14;;;;;;;28.00;13.70;;;;;;;-1.00;82.99;99231.80;130024;1268;98051;-79
2023/11/29 08:48:19;;;;;;;104.10;54.00;;;;;;;-0.97;82.76;99238.91;129882;1278;97964;-81
2023/11/29 08:51:25;;;;;;;148.70;68.50;;;;;;;-0.95;82.85;99245.78;130303;1265;99060;-80
2023/11/29 08:54:33;;;;;;;167.20;70.70;;;;;;;-0.94;82.51;99246.58;130398;1269;98066;-79
2023/11/29 08:57:39;;;;;;;194.20;77.90;;;;;;;-0.89;82.82;99247.64;130320;1268;98096;-79
2023/11/29 09:00:44;;;;;;;381.20;140.70;;;;;;;-0.86;82.22;99253.51;130203;1264;97987;-79
2023/11/29 09:03:50;;;;;;;447.10;155.30;;;;;;;-0.83;82.13;99254.14;130197;1269;97961;-79
2023/11/29 09:06:56;;;;;;;391.20;149.20;;;;;;;-0.85;82.03;99254.14;130941;1268;99174;-79
2023/11/29 09:10:05;;;;;;;245.90;94.20;;;;;;;-0.85;82.09;99253.83;130361;1268;97985;-78
2023/11/29 09:13:10;;;;;;;116.80;45.70;;;;;;;-0.80;82.07;99253.63;130329;1270;98460;-79
2023/11/29 09:16:16;;;;;;;55.70;23.70;;;;;;;-0.80;81.63;99251.35;130046;1268;97962;-80
2023/11/29 09:19:22;;;;;;;46.00;22.70;;;;;;;-0.83;81.23;99252.43;130007;1268;98069;-79
2023/11/29 09:22:29;;;;;;;204.80;92.60;;;;;;;-0.86;81.13;99255.22;129998;1268;97953;-78
2023/11/29 09:25:36;;;;;;;71.40;28.20;;;;;;;-0.82;80.70;99250.64;129859;1271;99209;-79
2023/11/29 09:28:42;;;;;;;32.60;16.00;;;;;;;-0.82;80.38;99248.36;129936;1270;99039;-78
2023/11/29 09:31:48;;;;;;;34.30;19.70;;;;;;;-0.86;80.43;99249.32;129976;1268;98060;-78
2023/11/29 09:34:53;;;;;;;27.50;14.20;;;;;;;-0.87;80.97;99249.40;129866;1265;98907;-78
2023/11/29 09:37:59;;;;;;;18.60;9.40;;;;;;;-0.85;79.99;99245.80;130039;1277;99061;-77
2023/11/29 09:41:07;;;;;;;57.00;32.50;;;;;;;-0.97;79.93;99250.79;130056;1269;97965;-77
2023/11/29 09:44:13;;;;;;;63.90;36.40;;;;;;;-0.95;80.95;99248.21;130067;1268;99145;-79
2023/11/29 09:47:23;;;;;;;143.70;81.50;;;;;;;-0.95;80.92;99244.55;130143;1263;98743;-79
2023/11/29 09:50:29;;;;;;;37.10;19.30;;;;;;;-0.87;80.92;99244.14;130279;1269;98080;-78
2023/11/29 09:53:35;;;;;;;77.50;43.30;;;;;;;-0.84;80.59;99249.01;129940;1268;99131;-76
2023/11/29 09:56:41;;;;;;;76.40;38.40;;;;;;;-0.73;80.80;99247.55;129813;1269;97969;-78
2023/11/29 09:59:50;;;;;;;30.70;16.50;;;;;;;-0.62;79.77;99245.59;129936;1268;98077;-77
2023/11/29 10:02:56;;;;;;;37.30;23.90;;;;;;;-0.59;80.43;99244.30;129948;1268;97965;-77
2023/11/29 10:06:04;;;;;;;33.80;15.60;;;;;;;-0.53;79.99;99242.35;129792;1270;99176;-77
2023/11/29 10:09:12;;;;;;;33.90;19.60;;;;;;;-0.56;79.19;99241.73;129796;1269;98001;-78
2023/11/29 10:12:17;;;;;;;32.40;22.40;;;;;;;-0.59;79.22;99238.75;129798;1269;98090;-78
2023/11/29 10:15:23;;;;;;;26.60;16.10;;;;;;;-0.57;79.70;99240.69;129986;1270;98059;-77
2023/11/29 10:18:28;;;;;;;20.20;11.40;;;;;;;-0.52;79.93;99242.79;129820;1278;98079;-77
2023/11/29 10:21:34;;;;;;;46.70;19.30;;;;;;;-0.48;79.74;99243.21;129760;1269;98082;-77
2023/11/29 10:24:40;;;;;;;138.70;48.90;;;;;;;-0.47;79.56;99244.85;129774;1272;97996;-77
2023/11/29 10:27:46;;;;;;;92.60;33.20;;;;;;;-0.46;79.61;99246.54;129746;1270;98070;-77
2023/11/29 10:30:52;;;;;;;195.00;59.90;;;;;;;-0.44;79.37;99244.83;129717;1270;98787;-75
2023/11/29 10:33:58;;;;;;;339.50;105.20;;;;;;;-0.42;79.33;99247.30;129760;1265;97974;-79
2023/11/29 10:37:05;;;;;;;359.90;105.50;;;;;;;-0.41;79.43;99246.73;129753;1270;99237;-76
2023/11/29 10:40:15;;;;;;;407.00;113.40;;;;;;;-0.37;79.44;99249.42;129816;1269;98064;-76
2023/11/29 10:43:24;;;;;;;518.40;159.70;;;;;;;-0.33;79.03;99248.63;129727;1278;98075;-76
2023/11/29 10:46:36;;;;;;;413.60;114.90;;;;;;;-0.40;78.95;99248.95;129691;1267;98000;-76
2023/11/29 10:49:48;;;;;;;188.90;48.80;;;;;;;-0.41;79.40;99242.55;129776;1271;97956;-75
2023/11/29 10:52:54;;;;;;;432.10;141.00;;;;;;;-0.44;78.14;99244.66;129787;1273;99186;-76
2023/11/29 10:56:00;;;;;;;283.60;85.30;;;;;;;-0.52;79.20;99245.22;129788;1281;97996;-76
2023/11/29 10:59:20;;;;;;;297.80;100.90;;;;;;;-0.48;77.64;99247.42;130082;1265;97982;-78
2023/11/29 11:02:30;;;;;;;300.70;101.20;;;;;;;-0.57;77.73;99250.11;129727;1270;98054;-77
2023/11/29 11:05:36;;;;;;;171.60;59.00;;;;;;;-0.57;78.51;99248.02;129855;1267;99116;-77
2023/11/29 11:08:41;;;;;;;416.10;170.90;;;;;;;-0.56;77.45;99246.04;129913;1279;99150;-76
2023/11/29 11:11:47;;;;;;;165.20;59.40;;;;;;;-0.57;78.26;99244.35;129718;1267;98566;-77
2023/11/29 11:14:57;;;;;;;50.70;21.70;;;;;;;-0.57;78.42;99240.52;129823;1269;99192;-76
2023/11/29 11:18:27;;;;;;;42.20;18.60;;;;;;;-0.53;78.31;99246.20;129930;1267;98046;-77
2023/11/29 11:21:32;;;;;;;48.70;20.90;;;;;;;-0.46;78.14;99251.96;129892;1270;98001;-77
2023/11/29 11:24:57;;;;;;;64.20;24.90;;;;;;;-0.43;77.51;99249.50;129900;1268;97963;-77
2023/11/29 11:28:03;;;;;;;31.10;12.80;;;;;;;-0.52;76.49;99245.05;129911;1271;99186;-77
2023/11/29 11:31:11;;;;;;;26.50;11.60;;;;;;;-0.62;76.80;99241.94;129898;1269;98651;-77
2023/11/29 11:34:17;;;;;;;103.30;53.70;;;;;;;-0.71;76.89;99245.14;129911;1270;98066;-77
2023/11/29 11:37:22;;;;;;;111.70;52.30;;;;;;;-0.72;77.69;99240.16;129909;1270;98041;-77
2023/11/29 11:40:29;;;;;;;132.50;70.30;;;;;;;-0.60;78.09;99235.70;129975;1271;98659;-78
2023/11/29 11:43:35;;;;;;;97.50;37.20;;;;;;;-0.51;77.37;99245.67;129924;1269;97990;-76
2023/11/29 11:46:41;;;;;;;52.20;28.20;;;;;;;-0.52;77.38;99250.86;129919;1271;97987;-78
2023/11/29 11:49:47;;;;;;;29.70;15.40;;;;;;;-0.47;77.08;99255.20;130002;1283;99048;-77
2023/11/29 11:52:53;;;;;;;30.30;14.60;;;;;;;-0.46;77.02;99258.27;129937;1264;97985;-77
2023/11/29 11:55:59;;;;;;;60.80;24.70;;;;;;;-0.44;76.67;99249.23;129984;1267;97963;-77
2023/11/29 11:59:05;;;;;;;27.50;12.80;;;;;;;-0.47;77.31;99249.41;129785;1264;183877;-77
2023/11/29 12:02:11;;;;;;;24.60;12.30;;;;;;;-0.38;77.17;99250.34;129964;1263;98041;-76
2023/11/29 12:05:16;;;;;;;29.70;17.20;;;;;;;-0.33;76.92;99241.99;130052;1263;98042;-77
2023/11/29 12:08:22;;;;;;;103.30;47.10;;;;;;;-0.30;76.53;99242.29;130000;1269;97991;-79
2023/11/29 12:11:30;;;;;;;289.50;111.50;;;;;;;-0.30;76.08;99242.66;129877;1269;97990;-75
2023/11/29 12:14:36;;;;;;;143.70;56.80;;;;;;;-0.33;76.57;99245.88;129906;1267;98061;-77
2023/11/29 12:17:42;;;;;;;100.60;42.50;;;;;;;-0.32;76.69;99239.64;129918;1267;97977;-78
2023/11/29 12:20:49;;;;;;;65.50;28.50;;;;;;;-0.26;76.38;99241.34;130048;1266;97969;-76
2023/11/29 12:24:03;;;;;;;159.10;73.10;;;;;;;-0.35;75.96;99241.45;130054;1263;98059;-78
2023/11/29 12:27:17;;;;;;;69.00;31.40;;;;;;;-0.43;76.33;99233.95;130106;1279;99049;-80
2023/11/29 12:30:25;;;;;;;34.20;15.90;;;;;;;-0.37;76.07;99241.78;129906;1270;98076;-76
2023/11/29 12:33:42;;;;;;;28.40;14.90;;;;;;;-0.41;75.77;99237.83;130089;1269;98138;-79
2023/11/29 12:37:12;;;;;;;24.30;14.00;;;;;;;-0.39;76.33;99238.71;129987;1263;97952;-77
2023/11/29 12:40:57;;;;;;;24.00;12.00;;;;;;;-0.35;75.89;99233.02;129989;1265;97974;-77
2023/11/29 12:44:10;;;;;;;22.50;11.70;;;;;;;-0.32;75.61;99233.70;130017;1268;97967;-78
2023/11/29 12:47:20;;;;;;;21.90;11.70;;;;;;;-0.31;75.71;99224.17;129888;1263;98656;-76
2023/11/29 12:50:28;;;;;;;24.00;13.10;;;;;;;-0.29;75.31;99225.11;130012;1268;97978;-77
2023/11/29 12:53:34;;;;;;;24.60;13.60;;;;;;;-0.33;75.00;99222.05;130030;1268;98039;-77
2023/11/29 12:56:39;;;;;;;30.60;17.90;;;;;;;-0.45;74.42;99221.84;130046;1263;97963;-78
2023/11/29 12:59:45;;;;;;;30.30;15.80;;;;;;;-0.63;74.62;99223.45;130058;1267;97998;-76
2023/11/29 13:02:51;;;;;;;33.70;16.80;;;;;;;-0.69;75.10;99224.59;129969;1268;99190;-77
2023/11/29 13:05:56;;;;;;;66.90;39.90;;;;;;;-0.71;75.22;99227.70;129996;1270;97977;-77
2023/11/29 13:09:02;;;;;;;37.00;20.90;;;;;;;-0.70;75.53;99224.16;129956;1270;97977;-77
2023/11/29 13:12:08;;;;;;;39.50;22.60;;;;;;;-0.67;75.40;99232.67;129949;1278;99151;-77
2023/11/29 13:15:13;;;;;;;40.90;23.10;;;;;;;-0.70;75.14;99235.84;130017;1268;99167;-78
2023/11/29 13:18:19;;;;;;;34.70;21.50;;;;;;;-0.77;75.18;99236.11;129873;1268;98759;-77
2023/11/29 13:21:26;;;;;;;37.10;23.10;;;;;;;-0.84;75.22;99239.55;129896;1265;99046;-77
2023/11/29 13:24:31;;;;;;;45.80;27.60;;;;;;;-0.87;75.22;99237.35;129874;1268;98974;-76
2023/11/29 13:27:37;;;;;;;33.10;18.00;;;;;;;-0.89;75.30;99241.73;129788;1264;98234;-78
2023/11/29 13:30:44;;;;;;;35.30;17.90;;;;;;;-0.89;75.48;99246.23;129816;1263;99090;-77
2023/11/29 13:33:50;;;;;;;34.60;18.10;;;;;;;-0.86;75.70;99245.70;130006;1277;99150;-78
2023/11/29 13:36:56;;;;;;;30.50;15.40;;;;;;;-0.83;75.27;99247.04;129954;1268;98801;-77
2023/11/29 13:40:02;;;;;;;30.20;14.70;;;;;;;-0.87;75.16;99246.61;129938;1270;98060;-77
2023/11/29 13:43:19;;;;;;;41.30;19.30;;;;;;;-0.91;74.96;99251.77;129839;1271;97998;-76
2023/11/29 13:46:26;;;;;;;150.00;55.30;;;;;;;-0.95;74.92;99256.21;129883;1270;98053;-77
2023/11/29 13:49:31;;;;;;;154.30;50.50;;;;;;;-0.99;75.17;99259.31;129824;1270;99169;-79
2023/11/29 13:52:37;;;;;;;628.80;222.70;;;;;;;-1.06;75.01;99255.91;129860;1266;98002;-78
2023/11/29 13:55:42;;;;;;;684.20;240.40;;;;;;;-1.13;74.92;99253.48;129855;1268;99233;-77
2023/11/29 13:58:48;;;;;;;314.20;84.10;;;;;;;-1.18;75.07;99252.34;129883;1267;97980;-76
2023/11/29 14:01:53;;;;;;;686.10;225.70;;;;;;;-1.16;75.30;99258.91;129868;1270;99151;-74
2023/11/29 14:04:59;;;;;;;1088.70;383.10;;;;;;;-1.14;75.42;99257.16;129824;1264;97987;-78
2023/11/29 14:08:04;;;;;;;709.10;207.80;;;;;;;-1.12;75.38;99256.34;129845;1265;99132;-78
2023/11/29 14:11:10;;;;;;;1246.80;434.00;;;;;;;-1.11;75.12;99258.40;129923;1265;98057;-77
2023/11/29 14:14:18;;;;;;;1018.20;308.60;;;;;;;-1.18;74.99;99261.60;129814;1265;97964;-78
2023/11/29 14:17:23;;;;;;;1438.10;477.40;;;;;;;-1.22;75.04;99265.73;130076;1265;98995;-78
2023/11/29 14:20:29;;;;;;;1492.60;485.10;;;;;;;-1.23;75.04;99266.12;129885;1279;97964;-76
2023/11/29 14:23:34;;;;;;;958.50;283.60;;;;;;;-1.22;75.14;99269.06;129846;1271;99140;-78
2023/11/29 14:26:41;;;;;;;545.40;139.10;;;;;;;-1.23;75.25;99276.40;129985;1270;98639;-77
2023/11/29 14:29:47;;;;;;;234.80;56.20;;;;;;;-1.21;75.32;99274.20;129916;1279;99144;-77
2023/11/29 14:32:52;;;;;;;1329.10;388.70;;;;;;;-1.17;75.55;99273.98;129849;1268;98018;-77
2023/11/29 14:35:58;;;;;;;410.80;101.80;;;;;;;-1.11;75.40;99272.83;129860;1263;99183;-77
2023/11/29 14:39:03;;;;;;;204.80;53.20;;;;;;;-1.00;75.29;99274.56;130103;1268;98084;-79
2023/11/29 14:42:09;;;;;;;382.80;93.80;;;;;;;-0.92;75.04;99271.73;130505;1268;98159;-77
2023/11/29 14:45:14;;;;;;;357.80;95.00;;;;;;;-0.91;75.11;99270.05;130071;1268;99158;-79
2023/11/29 14:48:20;;;;;;;188.10;67.40;;;;;;;-0.86;75.16;99273.42;130021;1263;97965;-79
2023/11/29 14:51:26;;;;;;;61.50;24.30;;;;;;;-0.82;75.09;99270.69;130191;1268;97989;-77
2023/11/29 14:54:31;;;;;;;44.50;20.70;;;;;;;-0.80;75.12;99272.83;130211;1264;98101;-78
2023/11/29 14:57:38;;;;;;;35.20;16.80;;;;;;;-0.82;74.91;99265.84;129939;1263;98333;-80
2023/11/29 15:00:44;;;;;;;27.70;13.40;;;;;;;-0.85;75.05;99269.88;129971;1264;98076;-77
2023/11/29 15:03:49;;;;;;;27.30;12.80;;;;;;;-0.86;75.04;99270.64;129884;1268;97983;-77
2023/11/29 15:06:55;;;;;;;27.40;13.40;;;;;;;-0.89;75.11;99271.34;130162;1263;97955;-75
2023/11/29 15:10:01;;;;;;;25.40;12.90;;;;;;;-0.93;75.08;99276.18;130036;1270;97957;-79
2023/11/29 15:13:09;;;;;;;27.20;13.20;;;;;;;-0.97;74.88;99270.50;129999;1275;98973;-78
2023/11/29 15:16:14;;;;;;;26.70;13.50;;;;;;;-1.01;75.24;99264.31;129921;1270;97980;-78
2023/11/29 15:19:20;;;;;;;25.00;12.80;;;;;;;-1.01;75.14;99264.85;129952;1279;98393;-77
2023/11/29 15:22:26;;;;;;;30.90;13.50;;;;;;;-1.01;75.25;99266.56;129852;1268;98821;-78
2023/11/29 15:25:32;;;;;;;26.50;13.50;;;;;;;-1.02;75.23;99267.67;129861;1265;97982;-77
2023/11/29 15:28:39;;;;;;;25.30;13.00;;;;;;;-1.04;74.85;99271.64;129864;1268;97965;-78
2023/11/29 15:31:45;;;;;;;27.90;14.20;;;;;;;-1.06;74.91;99272.02;129880;1265;98683;-77
2023/11/29 15:34:52;;;;;;;25.00;12.80;;;;;;;-1.09;74.84;99275.52;130242;1271;99196;-78
2023/11/29 15:37:57;;;;;;;28.80;13.10;;;;;;;-1.09;75.03;99278.80;130052;1265;98008;-79
2023/11/29 15:41:03;;;;;;;25.50;13.50;;;;;;;-1.12;74.90;99274.16;131463;1264;98990;-78
2023/11/29 15:44:09;;;;;;;37.40;19.60;;;;;;;-1.14;75.02;99275.51;129988;1264;97983;-79
2023/11/29 15:47:14;;;;;;;50.90;28.70;;;;;;;-1.14;75.19;99273.95;129977;1265;97979;-78
2023/11/29 15:50:23;;;;;;;36.60;20.10;;;;;;;-1.13;75.17;99274.05;130295;1268;99072;-79
2023/11/29 15:53:34;;;;;;;44.60;24.50;;;;;;;-1.13;74.91;99275.48;130063;1270;99048;-78
2023/11/29 15:56:39;;;;;;;78.90;42.40;;;;;;;-1.18;74.78;99276.10;130197;1264;97984;-81
2023/11/29 15:59:45;;;;;;;78.70;41.20;;;;;;;-1.22;74.92;99280.23;129968;1265;98062;-78
2023/11/29 16:02:50;;;;;;;49.50;25.60;;;;;;;-1.27;74.75;99276.52;130020;1264;99164;-80
2023/11/29 16:05:58;;;;;;;44.30;21.40;;;;;;;-1.32;74.55;99271.63;129920;1265;99130;-78
2023/11/29 16:09:03;;;;;;;78.50;31.30;;;;;;;-1.40;74.77;99270.08;129918;1267;97967;-79
2023/11/29 16:12:10;;;;;;;119.60;42.40;;;;;;;-1.57;74.59;99251.50;129944;1281;97965;-76
2023/11/29 16:15:16;;;;;;;71.10;26.70;;;;;;;-1.59;74.71;99266.95;129930;1268;97989;-77
2023/11/29 16:18:21;;;;;;;42.40;18.00;;;;;;;-1.70;74.54;99268.36;129959;1268;98144;-78
2023/11/29 16:21:27;;;;;;;37.50;17.60;;;;;;;-1.82;74.64;99270.00;129909;1270;97985;-78
2023/11/29 16:24:32;;;;;;;36.20;16.60;;;;;;;-1.93;74.43;99272.42;130384;1267;98027;-78
2023/11/29 16:27:38;;;;;;;45.20;22.70;;;;;;;-2.02;74.58;99274.59;129955;1267;99293;-77
2023/11/29 16:30:43;;;;;;;36.90;17.10;;;;;;;-2.10;74.55;99274.39;129979;1269;97967;-79
2023/11/29 16:33:49;;;;;;;24.80;13.20;;;;;;;-2.20;74.51;99272.23;131603;1263;97973;-77
2023/11/29 16:36:55;;;;;;;25.50;11.90;;;;;;;-2.27;74.58;99269.90;129807;1264;99188;-80
2023/11/29 16:40:00;;;;;;;28.80;13.60;;;;;;;-2.30;74.71;99269.40;130000;1268;98047;-79
2023/11/29 16:43:06;;;;;;;31.10;15.40;;;;;;;-2.30;74.53;99272.20;130228;1265;98067;-80
2023/11/29 16:46:12;;;;;;;27.00;12.80;;;;;;;-2.30;74.63;99267.64;130096;1264;98035;-80
2023/11/29 16:49:17;;;;;;;28.60;12.80;;;;;;;-2.28;74.43;99259.52;130219;1265;97967;-80
2023/11/29 16:52:23;;;;;;;25.50;13.70;;;;;;;-2.28;74.39;99259.68;130140;1268;98027;-78
2023/11/29 16:55:31;;;;;;;27.10;12.70;;;;;;;-2.33;74.49;99263.80;130327;1264;97965;-79
2023/11/29 16:58:37;;;;;;;29.50;14.20;;;;;;;-2.37;74.57;99261.77;129931;1265;99040;-80
2023/11/29 17:01:45;;;;;;;27.80;13.50;;;;;;;-2.41;74.54;99259.60;130027;1269;98756;-77
2023/11/29 17:04:50;;;;;;;27.50;13.50;;;;;;;-2.46;74.70;99261.29;130021;1265;98768;-81
2023/11/29 17:07:56;;;;;;;28.80;13.80;;;;;;;-2.50;74.56;99265.55;129942;1265;98035;-78